sensor_id;sensor_type;location;lat;lon;timestamp;pressure;altitude;pressure_sealevel;temperature;humidity
28921;BME280;16035;53.594;9.952;2022-09-09T00:00:16;100730.38;;;16.37;76.78
28921;BME280;16035;53.594;9.952;2022-09-09T00:02:25;100727.03;;;16.40;76.97
28921;BME280;16035;53.594;9.952;2022-09-09T00:04:34;100721.25;;;16.42;76.70
28921;BME280;16035;53.594;9.952;2022-09-09T00:09:14;100726.53;;;16.38;76.75
28921;BME280;16035;53.594;9.952;2022-09-09T00:11:25;100727.94;;;16.36;77.23
28921;BME280;16035;53.594;9.952;2022-09-09T00:13:46;100727.41;;;16.34;76.84
28921;BME280;16035;53.594;9.952;2022-09-09T00:15:57;100724.69;;;16.34;76.83
28921;BME280;16035;53.594;9.952;2022-09-09T00:18:11;100724.50;;;16.30;76.76
28921;BME280;16035;53.594;9.952;2022-09-09T00:20:25;100729.66;;;16.32;76.88
28921;BME280;16035;53.594;9.952;2022-09-09T00:22:30;100732.63;;;16.35;76.95
28921;BME280;16035;53.594;9.952;2022-09-09T00:24:43;100738.91;;;16.36;77.00
28921;BME280;16035;53.594;9.952;2022-09-09T00:26:45;100730.38;;;16.37;76.77
28921;BME280;16035;53.594;9.952;2022-09-09T00:31:19;100719.72;;;16.36;76.82
28921;BME280;16035;53.594;9.952;2022-09-09T00:33:23;100719.19;;;16.34;76.73
28921;BME280;16035;53.594;9.952;2022-09-09T00:35:27;100721.94;;;16.34;76.52
28921;BME280;16035;53.594;9.952;2022-09-09T00:37:30;100722.25;;;16.32;76.66
28921;BME280;16035;53.594;9.952;2022-09-09T00:39:39;100722.25;;;16.32;76.65
28921;BME280;16035;53.594;9.952;2022-09-09T00:44:31;100721.75;;;16.30;76.93
28921;BME280;16035;53.594;9.952;2022-09-09T00:46:50;100727.50;;;16.29;76.92
28921;BME280;16035;53.594;9.952;2022-09-09T00:49:03;100721.53;;;16.27;76.88
28921;BME280;16035;53.594;9.952;2022-09-09T00:51:30;100726.19;;;16.26;77.02
28921;BME280;16035;53.594;9.952;2022-09-09T00:53:58;100717.66;;;16.28;76.80
28921;BME280;16035;53.594;9.952;2022-09-09T00:56:18;100716.03;;;16.27;77.01
28921;BME280;16035;53.594;9.952;2022-09-09T00:58:21;100718.69;;;16.32;77.03
28921;BME280;16035;53.594;9.952;2022-09-09T01:00:24;100728.53;;;16.33;77.10
28921;BME280;16035;53.594;9.952;2022-09-09T01:02:29;100721.94;;;16.34;76.87
28921;BME280;16035;53.594;9.952;2022-09-09T01:04:35;100719.72;;;16.36;76.97
28921;BME280;16035;53.594;9.952;2022-09-09T01:06:37;100715.53;;;16.38;77.07
28921;BME280;16035;53.594;9.952;2022-09-09T01:11:12;100713.13;;;16.37;77.05
28921;BME280;16035;53.594;9.952;2022-09-09T01:13:27;100724.91;;;16.37;77.13
28921;BME280;16035;53.594;9.952;2022-09-09T01:15:31;100719.41;;;16.37;76.96
28921;BME280;16035;53.594;9.952;2022-09-09T01:22:01;100717.19;;;16.39;76.99
28921;BME280;16035;53.594;9.952;2022-09-09T01:28:26;100721.94;;;16.34;77.08
28921;BME280;16035;53.594;9.952;2022-09-09T01:30:28;100723.59;;;16.35;76.88
28921;BME280;16035;53.594;9.952;2022-09-09T01:32:40;100716.44;;;16.34;77.07
28921;BME280;16035;53.594;9.952;2022-09-09T01:34:41;100717.47;;;16.38;76.96
28921;BME280;16035;53.594;9.952;2022-09-09T01:37:10;100724.63;;;16.39;77.04
28921;BME280;16035;53.594;9.952;2022-09-09T01:39:10;100718.22;;;16.43;77.15
28921;BME280;16035;53.594;9.952;2022-09-09T01:41:11;100717.59;;;16.47;76.79
28921;BME280;16035;53.594;9.952;2022-09-09T01:43:11;100718.41;;;16.47;76.71
28921;BME280;16035;53.594;9.952;2022-09-09T01:45:12;100718.50;;;16.42;76.74
28921;BME280;16035;53.594;9.952;2022-09-09T01:47:12;100713.94;;;16.37;76.84
28921;BME280;16035;53.594;9.952;2022-09-09T01:49:15;100711.50;;;16.36;76.88
28921;BME280;16035;53.594;9.952;2022-09-09T01:51:17;100710.47;;;16.32;77.19
28921;BME280;16035;53.594;9.952;2022-09-09T01:53:18;100709.66;;;16.31;76.91
28921;BME280;16035;53.594;9.952;2022-09-09T01:55:34;100709.13;;;16.29;76.66
28921;BME280;16035;53.594;9.952;2022-09-09T01:57:53;100714.09;;;16.27;76.87
28921;BME280;16035;53.594;9.952;2022-09-09T02:02:22;100706.88;;;16.17;77.44
28921;BME280;16035;53.594;9.952;2022-09-09T02:04:47;100702.78;;;16.15;76.78
28921;BME280;16035;53.594;9.952;2022-09-09T02:06:51;100704.41;;;16.16;76.92
28921;BME280;16035;53.594;9.952;2022-09-09T02:08:56;100706.66;;;16.14;76.79
28921;BME280;16035;53.594;9.952;2022-09-09T02:11:16;100700.66;;;16.12;77.04
28921;BME280;16035;53.594;9.952;2022-09-09T02:13:19;100706.19;;;16.07;76.92
28921;BME280;16035;53.594;9.952;2022-09-09T02:17:36;100712.31;;;16.04;76.98
28921;BME280;16035;53.594;9.952;2022-09-09T02:19:44;100715.63;;;16.01;77.11
28921;BME280;16035;53.594;9.952;2022-09-09T02:21:49;100710.66;;;16.03;77.17
28921;BME280;16035;53.594;9.952;2022-09-09T02:23:50;100722.72;;;16.02;77.12
28921;BME280;16035;53.594;9.952;2022-09-09T02:25:53;100703.03;;;16.00;77.11
28921;BME280;16035;53.594;9.952;2022-09-09T02:27:56;100708.22;;;16.01;76.98
28921;BME280;16035;53.594;9.952;2022-09-09T02:29:59;100707.41;;;16.01;76.88
28921;BME280;16035;53.594;9.952;2022-09-09T02:32:06;100700.59;;;15.98;77.02
28921;BME280;16035;53.594;9.952;2022-09-09T02:34:09;100706.94;;;15.93;76.91
28921;BME280;16035;53.594;9.952;2022-09-09T02:36:12;100704.81;;;15.90;76.94
28921;BME280;16035;53.594;9.952;2022-09-09T02:38:16;100708.47;;;15.86;76.99
28921;BME280;16035;53.594;9.952;2022-09-09T02:40:17;100707.94;;;15.84;76.77
28921;BME280;16035;53.594;9.952;2022-09-09T02:42:18;100702.75;;;15.82;77.05
28921;BME280;16035;53.594;9.952;2022-09-09T02:44:19;100702.53;;;15.79;77.08
28921;BME280;16035;53.594;9.952;2022-09-09T02:53:02;100696.75;;;15.80;77.07
28921;BME280;16035;53.594;9.952;2022-09-09T02:55:18;100697.63;;;15.76;77.07
28921;BME280;16035;53.594;9.952;2022-09-09T02:57:24;100702.31;;;15.75;76.87
28921;BME280;16035;53.594;9.952;2022-09-09T02:59:26;100702.09;;;15.72;76.90
28921;BME280;16035;53.594;9.952;2022-09-09T03:01:26;100711.72;;;15.69;76.82
28921;BME280;16035;53.594;9.952;2022-09-09T03:03:27;100707.13;;;15.64;76.78
28921;BME280;16035;53.594;9.952;2022-09-09T03:05:27;100703.00;;;15.62;77.00
28921;BME280;16035;53.594;9.952;2022-09-09T03:07:28;100701.66;;;15.64;77.17
28921;BME280;16035;53.594;9.952;2022-09-09T03:09:28;100706.00;;;15.65;76.93
28921;BME280;16035;53.594;9.952;2022-09-09T03:11:28;100704.38;;;15.64;76.93
28921;BME280;16035;53.594;9.952;2022-09-09T03:13:29;100706.88;;;15.61;77.19
28921;BME280;16035;53.594;9.952;2022-09-09T03:15:29;100706.06;;;15.60;77.00
28921;BME280;16035;53.594;9.952;2022-09-09T03:17:31;100716.53;;;15.53;77.18
28921;BME280;16035;53.594;9.952;2022-09-09T03:19:31;100717.38;;;15.54;76.68
28921;BME280;16035;53.594;9.952;2022-09-09T03:21:31;100711.06;;;15.53;76.86
28921;BME280;16035;53.594;9.952;2022-09-09T03:23:32;100710.56;;;15.51;76.87
28921;BME280;16035;53.594;9.952;2022-09-09T03:25:32;100700.13;;;15.53;76.93
28921;BME280;16035;53.594;9.952;2022-09-09T03:27:33;100701.47;;;15.56;77.13
28921;BME280;16035;53.594;9.952;2022-09-09T03:29:33;100704.50;;;15.54;77.11
28921;BME280;16035;53.594;9.952;2022-09-09T03:31:34;100702.84;;;15.53;77.12
28921;BME280;16035;53.594;9.952;2022-09-09T03:33:36;100703.47;;;15.50;77.15
28921;BME280;16035;53.594;9.952;2022-09-09T03:35:37;100698.78;;;15.51;77.03
28921;BME280;16035;53.594;9.952;2022-09-09T03:37:37;100700.72;;;15.50;76.61
28921;BME280;16035;53.594;9.952;2022-09-09T03:39:38;100703.22;;;15.47;77.13
28921;BME280;16035;53.594;9.952;2022-09-09T03:41:39;100704.63;;;15.44;77.06
28921;BME280;16035;53.594;9.952;2022-09-09T03:43:39;100709.59;;;15.42;76.79
28921;BME280;16035;53.594;9.952;2022-09-09T03:45:40;100700.56;;;15.41;77.06
28921;BME280;16035;53.594;9.952;2022-09-09T03:47:40;100714.03;;;15.38;77.07
28921;BME280;16035;53.594;9.952;2022-09-09T03:49:40;100711.06;;;15.34;77.06
28921;BME280;16035;53.594;9.952;2022-09-09T03:51:41;100708.06;;;15.31;76.82
28921;BME280;16035;53.594;9.952;2022-09-09T03:53:42;100709.19;;;15.30;76.87
28921;BME280;16035;53.594;9.952;2022-09-09T03:55:47;100716.28;;;15.31;76.90
28921;BME280;16035;53.594;9.952;2022-09-09T03:57:48;100716.28;;;15.31;77.22
28921;BME280;16035;53.594;9.952;2022-09-09T03:59:49;100713.22;;;15.37;76.90
28921;BME280;16035;53.594;9.952;2022-09-09T04:01:50;100721.13;;;15.39;77.09
28921;BME280;16035;53.594;9.952;2022-09-09T04:03:51;100717.28;;;15.40;76.91
28921;BME280;16035;53.594;9.952;2022-09-09T04:05:52;100722.53;;;15.36;77.00
28921;BME280;16035;53.594;9.952;2022-09-09T04:07:53;100727.22;;;15.36;76.86
28921;BME280;16035;53.594;9.952;2022-09-09T04:09:54;100721.72;;;15.36;77.13
28921;BME280;16035;53.594;9.952;2022-09-09T04:11:54;100723.34;;;15.37;76.88
28921;BME280;16035;53.594;9.952;2022-09-09T04:13:55;100721.44;;;15.37;76.90
28921;BME280;16035;53.594;9.952;2022-09-09T04:15:58;100721.72;;;15.36;76.83
28921;BME280;16035;53.594;9.952;2022-09-09T04:17:58;100724.22;;;15.32;77.10
28921;BME280;16035;53.594;9.952;2022-09-09T04:19:59;100729.41;;;15.34;77.03
28921;BME280;16035;53.594;9.952;2022-09-09T04:21:59;100729.41;;;15.34;76.74
28921;BME280;16035;53.594;9.952;2022-09-09T04:23:59;100732.63;;;15.41;77.02
28921;BME280;16035;53.594;9.952;2022-09-09T04:26:00;100723.28;;;15.42;76.99
28921;BME280;16035;53.594;9.952;2022-09-09T04:28:01;100724.91;;;15.43;76.80
28921;BME280;16035;53.594;9.952;2022-09-09T04:30:03;100729.66;;;15.37;76.71
28921;BME280;16035;53.594;9.952;2022-09-09T04:32:03;100728.28;;;15.35;76.72
28921;BME280;16035;53.594;9.952;2022-09-09T04:34:04;100737.94;;;15.32;76.79
28921;BME280;16035;53.594;9.952;2022-09-09T04:36:06;100734.38;;;15.32;76.80
28921;BME280;16035;53.594;9.952;2022-09-09T04:38:06;100733.84;;;15.30;76.69
28921;BME280;16035;53.594;9.952;2022-09-09T04:40:09;100732.72;;;15.31;76.95
28921;BME280;16035;53.594;9.952;2022-09-09T04:42:09;100730.81;;;15.31;76.71
28921;BME280;16035;53.594;9.952;2022-09-09T04:44:10;100734.88;;;15.34;77.11
28921;BME280;16035;53.594;9.952;2022-09-09T04:46:10;100742.53;;;15.37;76.91
28921;BME280;16035;53.594;9.952;2022-09-09T04:48:10;100744.72;;;15.35;77.03
28921;BME280;16035;53.594;9.952;2022-09-09T04:50:11;100743.63;;;15.36;76.77
28921;BME280;16035;53.594;9.952;2022-09-09T04:52:12;100741.41;;;15.38;76.71
28921;BME280;16035;53.594;9.952;2022-09-09T04:54:12;100745.25;;;15.37;76.98
28921;BME280;16035;53.594;9.952;2022-09-09T04:56:15;100750.97;;;15.40;77.12
28921;BME280;16035;53.594;9.952;2022-09-09T04:58:16;100751.78;;;15.41;76.94
28921;BME280;16035;53.594;9.952;2022-09-09T05:00:16;100751.78;;;15.41;77.00
28921;BME280;16035;53.594;9.952;2022-09-09T05:02:17;100751.47;;;15.42;77.01
28921;BME280;16035;53.594;9.952;2022-09-09T05:04:17;100748.75;;;15.42;76.82
28921;BME280;16035;53.594;9.952;2022-09-09T05:06:21;100748.75;;;15.42;76.99
28921;BME280;16035;53.594;9.952;2022-09-09T05:08:21;100750.66;;;15.42;76.98
28921;BME280;16035;53.594;9.952;2022-09-09T05:10:26;100743.19;;;15.48;76.91
28921;BME280;16035;53.594;9.952;2022-09-09T05:12:28;100750.28;;;15.49;76.99
28921;BME280;16035;53.594;9.952;2022-09-09T05:14:29;100752.22;;;15.48;76.81
28921;BME280;16035;53.594;9.952;2022-09-09T05:16:30;100742.38;;;15.47;77.11
28921;BME280;16035;53.594;9.952;2022-09-09T05:18:31;100750.09;;;15.45;76.76
28921;BME280;16035;53.594;9.952;2022-09-09T05:20:31;100756.66;;;15.44;76.94
28921;BME280;16035;53.594;9.952;2022-09-09T05:22:32;100755.03;;;15.43;77.15
28921;BME280;16035;53.594;9.952;2022-09-09T05:24:32;100749.84;;;15.41;76.98
28921;BME280;16035;53.594;9.952;2022-09-09T05:26:33;100754.72;;;15.45;76.91
28921;BME280;16035;53.594;9.952;2022-09-09T05:28:34;100753.34;;;15.47;77.13
28921;BME280;16035;53.594;9.952;2022-09-09T05:30:35;100751.13;;;15.49;77.01
28921;BME280;16035;53.594;9.952;2022-09-09T05:32:35;100746.47;;;15.50;77.07
28921;BME280;16035;53.594;9.952;2022-09-09T05:34:36;100751.34;;;15.53;77.08
28921;BME280;16035;53.594;9.952;2022-09-09T05:36:37;100757.88;;;15.57;77.03
28921;BME280;16035;53.594;9.952;2022-09-09T05:38:38;100760.34;;;15.58;76.79
28921;BME280;16035;53.594;9.952;2022-09-09T05:40:39;100762.53;;;15.56;76.75
28921;BME280;16035;53.594;9.952;2022-09-09T05:42:47;100765.28;;;15.56;76.83
28921;BME280;16035;53.594;9.952;2022-09-09T05:44:47;100773.78;;;15.55;76.91
28921;BME280;16035;53.594;9.952;2022-09-09T05:46:48;100766.91;;;15.57;76.95
28921;BME280;16035;53.594;9.952;2022-09-09T05:48:50;100776.75;;;15.58;76.96
28921;BME280;16035;53.594;9.952;2022-09-09T05:50:54;100770.97;;;15.60;77.26
28921;BME280;16035;53.594;9.952;2022-09-09T05:52:55;100778.34;;;15.64;77.14
28921;BME280;16035;53.594;9.952;2022-09-09T05:54:55;100779.41;;;15.69;76.99
28921;BME280;16035;53.594;9.952;2022-09-09T05:56:57;100770.00;;;15.75;77.27
28921;BME280;16035;53.594;9.952;2022-09-09T05:58:58;100767.97;;;15.80;76.93
28921;BME280;16035;53.594;9.952;2022-09-09T06:03:04;100773.03;;;15.92;76.94
28921;BME280;16035;53.594;9.952;2022-09-09T06:05:04;100782.00;;;15.98;77.05
28921;BME280;16035;53.594;9.952;2022-09-09T06:07:05;100781.72;;;15.99;76.91
28921;BME280;16035;53.594;9.952;2022-09-09T06:09:07;100786.88;;;16.01;76.85
28921;BME280;16035;53.594;9.952;2022-09-09T06:11:12;100781.41;;;16.01;76.91
28921;BME280;16035;53.594;9.952;2022-09-09T06:13:13;100785.50;;;16.03;77.06
28921;BME280;16035;53.594;9.952;2022-09-09T06:15:14;100787.13;;;16.04;76.81
28921;BME280;16035;53.594;9.952;2022-09-09T06:17:14;100798.91;;;16.05;76.77
28921;BME280;16035;53.594;9.952;2022-09-09T06:19:14;100802.97;;;16.07;77.20
28921;BME280;16035;53.594;9.952;2022-09-09T06:21:17;100803.78;;;16.08;77.08
28921;BME280;16035;53.594;9.952;2022-09-09T06:23:17;100802.38;;;16.10;76.93
28921;BME280;16035;53.594;9.952;2022-09-09T06:25:19;100804.00;;;16.11;76.96
28921;BME280;16035;53.594;9.952;2022-09-09T06:27:19;100793.88;;;16.12;77.11
28921;BME280;16035;53.594;9.952;2022-09-09T06:29:19;100803.41;;;16.14;76.91
28921;BME280;16035;53.594;9.952;2022-09-09T06:31:22;100801.25;;;16.11;76.76
28921;BME280;16035;53.594;9.952;2022-09-09T06:33:23;100796.88;;;16.10;76.58
28921;BME280;16035;53.594;9.952;2022-09-09T06:35:23;100796.63;;;16.12;76.73
28921;BME280;16035;53.594;9.952;2022-09-09T06:37:23;100802.28;;;16.15;76.77
28921;BME280;16035;53.594;9.952;2022-09-09T06:39:24;100796.53;;;16.17;76.70
28921;BME280;16035;53.594;9.952;2022-09-09T06:41:26;100795.91;;;16.20;76.90
28921;BME280;16035;53.594;9.952;2022-09-09T06:43:27;100800.50;;;16.25;76.86
28921;BME280;16035;53.594;9.952;2022-09-09T06:45:28;100797.09;;;16.33;76.41
28921;BME280;16035;53.594;9.952;2022-09-09T06:47:29;100800.50;;;16.43;76.66
28921;BME280;16035;53.594;9.952;2022-09-09T06:49:30;100804.78;;;16.50;76.81
28921;BME280;16035;53.594;9.952;2022-09-09T06:51:33;100807.75;;;16.53;76.58
28921;BME280;16035;53.594;9.952;2022-09-09T06:53:35;100803.81;;;16.59;76.42
28921;BME280;16035;53.594;9.952;2022-09-09T06:55:35;100802.63;;;16.65;76.51
28921;BME280;16035;53.594;9.952;2022-09-09T06:57:36;100805.38;;;16.65;76.38
28921;BME280;16035;53.594;9.952;2022-09-09T06:59:36;100792.16;;;16.67;76.37
28921;BME280;16035;53.594;9.952;2022-09-09T07:01:38;100802.75;;;16.74;76.64
28921;BME280;16035;53.594;9.952;2022-09-09T07:03:41;100801.25;;;16.82;76.49
28921;BME280;16035;53.594;9.952;2022-09-09T07:05:42;100800.75;;;16.80;76.58
28921;BME280;16035;53.594;9.952;2022-09-09T07:07:44;100800.25;;;16.91;76.09
28921;BME280;16035;53.594;9.952;2022-09-09T07:09:44;100801.00;;;16.97;76.07
28921;BME280;16035;53.594;9.952;2022-09-09T07:11:47;100801.84;;;17.11;76.21
28921;BME280;16035;53.594;9.952;2022-09-09T07:13:48;100810.91;;;17.26;75.97
28921;BME280;16035;53.594;9.952;2022-09-09T07:15:49;100811.50;;;17.36;75.61
28921;BME280;16035;53.594;9.952;2022-09-09T07:17:49;100806.09;;;17.45;75.01
28921;BME280;16035;53.594;9.952;2022-09-09T07:19:49;100816.19;;;17.50;75.53
28921;BME280;16035;53.594;9.952;2022-09-09T07:21:49;100806.31;;;17.49;75.16
28921;BME280;16035;53.594;9.952;2022-09-09T07:23:50;100809.75;;;17.54;75.55
28921;BME280;16035;53.594;9.952;2022-09-09T07:25:51;100812.72;;;17.58;75.35
28921;BME280;16035;53.594;9.952;2022-09-09T07:27:53;100816.81;;;17.60;75.46
28921;BME280;16035;53.594;9.952;2022-09-09T07:29:53;100811.81;;;17.62;75.36
28921;BME280;16035;53.594;9.952;2022-09-09T07:31:54;100807.84;;;17.68;75.72
28921;BME280;16035;53.594;9.952;2022-09-09T07:33:54;100813.16;;;17.79;75.98
28921;BME280;16035;53.594;9.952;2022-09-09T07:36:02;100811.72;;;17.95;75.75
28921;BME280;16035;53.594;9.952;2022-09-09T07:38:03;100810.38;;;18.29;75.67
28921;BME280;16035;53.594;9.952;2022-09-09T07:40:06;100802.88;;;18.65;75.44
28921;BME280;16035;53.594;9.952;2022-09-09T07:42:07;100812.84;;;19.06;74.75
28921;BME280;16035;53.594;9.952;2022-09-09T07:44:11;100808.13;;;19.78;74.25
28921;BME280;16035;53.594;9.952;2022-09-09T07:46:13;100803.16;;;20.32;72.37
28921;BME280;16035;53.594;9.952;2022-09-09T07:48:14;100813.38;;;20.40;70.95
28921;BME280;16035;53.594;9.952;2022-09-09T07:50:14;100818.22;;;20.08;70.70
28921;BME280;16035;53.594;9.952;2022-09-09T07:52:15;100824.09;;;19.58;71.18
28921;BME280;16035;53.594;9.952;2022-09-09T07:54:17;100829.44;;;19.15;72.27
28921;BME280;16035;53.594;9.952;2022-09-09T07:56:24;100832.00;;;18.80;72.68
28921;BME280;16035;53.594;9.952;2022-09-09T07:58:25;100829.84;;;18.55;73.49
28921;BME280;16035;53.594;9.952;2022-09-09T08:00:25;100831.31;;;18.38;74.07
28921;BME280;16035;53.594;9.952;2022-09-09T08:02:28;100830.16;;;18.31;74.30
28921;BME280;16035;53.594;9.952;2022-09-09T08:04:29;100834.94;;;18.25;74.05
28921;BME280;16035;53.594;9.952;2022-09-09T08:06:36;100832.47;;;18.37;74.47
28921;BME280;16035;53.594;9.952;2022-09-09T08:08:38;100841.66;;;18.55;73.87
28921;BME280;16035;53.594;9.952;2022-09-09T08:10:38;100838.50;;;18.62;73.88
28921;BME280;16035;53.594;9.952;2022-09-09T08:12:39;100843.19;;;18.84;73.09
28921;BME280;16035;53.594;9.952;2022-09-09T08:14:39;100843.13;;;18.98;73.34
28921;BME280;16035;53.594;9.952;2022-09-09T08:16:43;100841.66;;;19.00;73.45
28921;BME280;16035;53.594;9.952;2022-09-09T08:18:43;100842.19;;;19.02;73.25
28921;BME280;16035;53.594;9.952;2022-09-09T08:20:44;100845.09;;;19.06;73.29
28921;BME280;16035;53.594;9.952;2022-09-09T08:22:45;100850.00;;;19.09;73.20
28921;BME280;16035;53.594;9.952;2022-09-09T08:24:45;100849.81;;;19.05;72.82
28921;BME280;16035;53.594;9.952;2022-09-09T08:26:47;100852.69;;;19.00;72.99
28921;BME280;16035;53.594;9.952;2022-09-09T08:28:53;100851.41;;;18.98;72.88
28921;BME280;16035;53.594;9.952;2022-09-09T08:30:53;100850.13;;;19.04;72.80
28921;BME280;16035;53.594;9.952;2022-09-09T08:32:54;100856.06;;;19.28;72.62
28921;BME280;16035;53.594;9.952;2022-09-09T08:34:54;100851.50;;;19.24;72.12
28921;BME280;16035;53.594;9.952;2022-09-09T08:36:55;100854.16;;;19.29;72.36
28921;BME280;16035;53.594;9.952;2022-09-09T08:38:57;100856.78;;;19.34;72.13
28921;BME280;16035;53.594;9.952;2022-09-09T08:41:05;100854.97;;;19.29;72.28
28921;BME280;16035;53.594;9.952;2022-09-09T08:43:08;100857.03;;;19.24;72.28
28921;BME280;16035;53.594;9.952;2022-09-09T08:45:18;100855.91;;;19.25;72.65
28921;BME280;16035;53.594;9.952;2022-09-09T08:51:50;100852.97;;;19.52;72.86
28921;BME280;16035;53.594;9.952;2022-09-09T08:53:51;100859.75;;;19.55;71.92
28921;BME280;16035;53.594;9.952;2022-09-09T08:56:09;100860.00;;;19.36;72.18
28921;BME280;16035;53.594;9.952;2022-09-09T08:58:15;100859.63;;;19.20;72.06
28921;BME280;16035;53.594;9.952;2022-09-09T09:00:17;100863.44;;;19.10;72.28
28921;BME280;16035;53.594;9.952;2022-09-09T09:11:25;100874.13;;;19.34;72.47
28921;BME280;16035;53.594;9.952;2022-09-09T09:15:40;100866.06;;;19.95;72.87
28921;BME280;16035;53.594;9.952;2022-09-09T09:17:42;100864.84;;;20.44;71.88
28921;BME280;16035;53.594;9.952;2022-09-09T09:19:44;100855.59;;;20.66;71.01
28921;BME280;16035;53.594;9.952;2022-09-09T09:21:54;100860.31;;;20.75;70.92
28921;BME280;16035;53.594;9.952;2022-09-09T09:23:59;100860.28;;;21.01;70.07
28921;BME280;16035;53.594;9.952;2022-09-09T09:26:00;100851.66;;;20.93;69.87
28921;BME280;16035;53.594;9.952;2022-09-09T09:28:02;100858.84;;;20.86;69.56
28921;BME280;16035;53.594;9.952;2022-09-09T09:30:18;100853.66;;;20.76;69.74
28921;BME280;16035;53.594;9.952;2022-09-09T09:32:19;100856.28;;;20.72;69.88
28921;BME280;16035;53.594;9.952;2022-09-09T09:34:21;100845.22;;;20.72;70.39
28921;BME280;16035;53.594;9.952;2022-09-09T09:36:32;100854.50;;;20.67;70.23
28921;BME280;16035;53.594;9.952;2022-09-09T09:38:34;100865.84;;;20.57;70.35
28921;BME280;16035;53.594;9.952;2022-09-09T09:40:35;100857.69;;;20.43;70.31
28921;BME280;16035;53.594;9.952;2022-09-09T09:42:36;100866.47;;;20.37;70.36
28921;BME280;16035;53.594;9.952;2022-09-09T09:44:37;100858.84;;;20.25;70.47
28921;BME280;16035;53.594;9.952;2022-09-09T09:46:37;100852.50;;;20.25;70.05
28921;BME280;16035;53.594;9.952;2022-09-09T09:48:37;100866.63;;;20.23;69.81
28921;BME280;16035;53.594;9.952;2022-09-09T09:50:51;100862.91;;;20.19;70.13
28921;BME280;16035;53.594;9.952;2022-09-09T09:52:58;100864.00;;;20.27;70.29
28921;BME280;16035;53.594;9.952;2022-09-09T09:55:03;100865.22;;;20.60;70.38
28921;BME280;16035;53.594;9.952;2022-09-09T09:57:11;100863.50;;;21.67;69.85
28921;BME280;16035;53.594;9.952;2022-09-09T09:59:33;100865.72;;;22.33;68.07
28921;BME280;16035;53.594;9.952;2022-09-09T10:01:35;100866.97;;;22.77;66.81
28921;BME280;16035;53.594;9.952;2022-09-09T10:03:35;100859.66;;;22.93;66.18
28921;BME280;16035;53.594;9.952;2022-09-09T10:05:45;100861.00;;;23.08;66.06
28921;BME280;16035;53.594;9.952;2022-09-09T10:07:46;100856.34;;;23.82;65.46
28921;BME280;16035;53.594;9.952;2022-09-09T10:09:52;100856.31;;;24.59;64.43
28921;BME280;16035;53.594;9.952;2022-09-09T10:16:30;100857.06;;;24.44;62.99
28921;BME280;16035;53.594;9.952;2022-09-09T10:18:42;100863.53;;;24.36;62.21
28921;BME280;16035;53.594;9.952;2022-09-09T10:23:06;100854.84;;;24.50;61.87
28921;BME280;16035;53.594;9.952;2022-09-09T10:36:21;100850.09;;;25.22;58.50
28921;BME280;16035;53.594;9.952;2022-09-09T10:38:34;100851.84;;;24.99;58.55
28921;BME280;16035;53.594;9.952;2022-09-09T10:43:00;100853.59;;;24.47;59.21
28921;BME280;16035;53.594;9.952;2022-09-09T10:45:23;100850.28;;;24.17;59.30
28921;BME280;16035;53.594;9.952;2022-09-09T10:54:34;100851.97;;;23.11;60.83
28921;BME280;16035;53.594;9.952;2022-09-09T10:56:38;100844.38;;;23.08;60.73
28921;BME280;16035;53.594;9.952;2022-09-09T10:59:40;100853.19;;;22.89;60.14
28921;BME280;16035;53.594;9.952;2022-09-09T11:01:26;100854.34;;;22.67;60.20
28921;BME280;16035;53.594;9.952;2022-09-09T11:03:29;100847.41;;;22.61;61.31
28921;BME280;16035;53.594;9.952;2022-09-09T11:05:39;100843.81;;;22.61;61.08
28921;BME280;16035;53.594;9.952;2022-09-09T11:07:45;100835.88;;;22.71;61.65
28921;BME280;16035;53.594;9.952;2022-09-09T11:09:52;100840.19;;;22.81;61.24
28921;BME280;16035;53.594;9.952;2022-09-09T11:11:58;100844.69;;;22.74;61.30
28921;BME280;16035;53.594;9.952;2022-09-09T11:14:09;100843.75;;;22.69;61.17
28921;BME280;16035;53.594;9.952;2022-09-09T11:18:28;100840.56;;;22.59;61.03
28921;BME280;16035;53.594;9.952;2022-09-09T11:20:29;100836.75;;;22.51;61.65
28921;BME280;16035;53.594;9.952;2022-09-09T11:22:34;100833.78;;;22.35;60.98
28921;BME280;16035;53.594;9.952;2022-09-09T11:24:50;100838.13;;;22.24;61.11
28921;BME280;16035;53.594;9.952;2022-09-09T11:27:00;100839.16;;;22.32;61.44
28921;BME280;16035;53.594;9.952;2022-09-09T11:29:07;100843.50;;;22.41;61.33
28921;BME280;16035;53.594;9.952;2022-09-09T11:31:34;100842.50;;;22.46;60.89
28921;BME280;16035;53.594;9.952;2022-09-09T11:33:47;100839.97;;;22.53;61.26
28921;BME280;16035;53.594;9.952;2022-09-09T11:36:24;100849.22;;;22.57;60.25
28921;BME280;16035;53.594;9.952;2022-09-09T11:38:44;100845.31;;;22.58;60.49
28921;BME280;16035;53.594;9.952;2022-09-09T11:40:46;100846.59;;;22.61;61.08
28921;BME280;16035;53.594;9.952;2022-09-09T11:42:48;100847.31;;;22.70;61.07
28921;BME280;16035;53.594;9.952;2022-09-09T11:44:50;100847.91;;;22.76;60.86
28921;BME280;16035;53.594;9.952;2022-09-09T11:46:51;100852.28;;;22.64;60.20
28921;BME280;16035;53.594;9.952;2022-09-09T11:49:04;100847.97;;;22.55;59.84
28921;BME280;16035;53.594;9.952;2022-09-09T11:53:21;100847.53;;;22.65;60.61
28921;BME280;16035;53.594;9.952;2022-09-09T11:57:36;100848.78;;;22.55;60.22
28921;BME280;16035;53.594;9.952;2022-09-09T11:59:36;100842.41;;;22.55;60.59
28921;BME280;16035;53.594;9.952;2022-09-09T12:01:50;100850.81;;;22.46;59.75
28921;BME280;16035;53.594;9.952;2022-09-09T12:04:47;100851.19;;;22.36;60.52
28921;BME280;16035;53.594;9.952;2022-09-09T12:06:27;100847.38;;;22.28;60.41
28921;BME280;16035;53.594;9.952;2022-09-09T12:08:31;100839.13;;;22.19;60.37
28921;BME280;16035;53.594;9.952;2022-09-09T12:10:56;100850.06;;;22.16;60.03